createdAt,value
2018-03-20T00:01:46.940Z,94.80
2018-03-20T00:04:13.908Z,95.10
2018-03-20T00:06:40.116Z,94.80
2018-03-20T00:09:06.331Z,94.70
2018-03-20T00:11:32.570Z,94.70
2018-03-20T00:13:58.873Z,94.70
2018-03-20T00:16:25.040Z,94.70
2018-03-20T00:18:51.260Z,94.70
2018-03-20T00:21:17.503Z,94.60
2018-03-20T00:23:43.725Z,94.70
2018-03-20T00:26:09.969Z,94.60
2018-03-20T00:28:36.204Z,94.60
2018-03-20T00:31:02.435Z,94.70
2018-03-20T00:33:29.399Z,95.10
2018-03-20T00:35:56.633Z,95.20
2018-03-20T00:38:22.855Z,95.20
2018-03-20T00:40:49.091Z,95.20
2018-03-20T00:43:15.326Z,95.20
2018-03-20T00:45:41.549Z,95.10
2018-03-20T00:48:07.769Z,95.10
2018-03-20T00:50:33.995Z,95.10
2018-03-20T00:53:01.242Z,95.20
2018-03-20T00:55:27.554Z,95.10
2018-03-20T00:57:53.745Z,95.10
2018-03-20T01:00:20.727Z,95.10
2018-03-20T01:02:46.957Z,95.10
2018-03-20T01:05:13.199Z,95.10
2018-03-20T01:07:39.409Z,95.10
2018-03-20T01:10:06.385Z,95.30
2018-03-20T01:12:33.337Z,95.10
2018-03-20T01:15:00.315Z,95.10
2018-03-20T01:17:26.543Z,95.10
2018-03-20T01:19:52.777Z,95.20
2018-03-20T01:22:20.020Z,95.30
2018-03-20T01:24:46.219Z,95.20
2018-03-20T01:27:12.424Z,95.30
2018-03-20T01:29:39.386Z,95.20
2018-03-20T01:32:05.583Z,95.20
2018-03-20T01:34:31.804Z,95.20
2018-03-20T01:36:58.005Z,95.20
2018-03-20T01:39:24.223Z,95.10
2018-03-20T01:41:50.461Z,95.20
2018-03-20T01:44:16.928Z,95.20
2018-03-20T01:46:43.883Z,95.10
2018-03-20T01:49:10.091Z,95.10
2018-03-20T01:51:36.314Z,95.10
2018-03-20T01:54:02.555Z,95.10
2018-03-20T01:56:28.774Z,95.10
2018-03-20T01:58:54.988Z,95.00
2018-03-20T02:01:22.324Z,95.00
2018-03-20T02:03:48.532Z,95.00
2018-03-20T02:06:14.758Z,95.10
2018-03-20T02:08:41.000Z,95.20
2018-03-20T02:11:07.220Z,95.40
2018-03-20T02:13:33.458Z,95.40
2018-03-20T02:15:59.677Z,95.60
2018-03-20T02:18:25.906Z,95.60
2018-03-20T02:20:52.138Z,95.60
2018-03-20T02:23:20.417Z,95.60
2018-03-20T02:25:46.782Z,95.60
2018-03-20T02:28:12.990Z,95.70
2018-03-20T02:30:39.234Z,96.10
2018-03-20T02:33:05.456Z,95.70
2018-03-20T02:35:31.699Z,95.70
2018-03-20T02:37:57.913Z,95.60
2018-03-20T02:40:24.120Z,95.60
2018-03-20T02:42:50.340Z,95.60
2018-03-20T02:45:16.548Z,95.50
2018-03-20T02:47:42.775Z,95.40
2018-03-20T02:50:08.982Z,95.40
2018-03-20T02:52:35.524Z,95.50
2018-03-20T02:55:01.852Z,95.40
2018-03-20T02:57:28.065Z,95.70
2018-03-20T02:59:54.297Z,95.60
2018-03-20T03:02:20.516Z,95.50
2018-03-20T03:04:47.845Z,95.60
2018-03-20T03:07:14.051Z,95.60
2018-03-20T03:09:40.271Z,95.80
2018-03-20T03:12:06.763Z,96.00
2018-03-20T03:14:32.989Z,96.00
2018-03-20T03:16:59.201Z,95.90
2018-03-20T03:19:25.425Z,96.00
2018-03-20T03:21:52.380Z,96.00
2018-03-20T03:24:18.623Z,96.00
2018-03-20T03:26:45.593Z,95.90
2018-03-20T03:29:11.833Z,95.90
2018-03-20T03:31:38.058Z,95.80
2018-03-20T03:34:05.014Z,95.80
2018-03-20T03:36:31.991Z,95.90
2018-03-20T03:38:58.214Z,95.90
2018-03-20T03:41:25.191Z,95.90
2018-03-20T03:43:51.399Z,95.90
2018-03-20T03:46:17.898Z,95.90
2018-03-20T03:48:44.113Z,95.90
2018-03-20T03:51:10.347Z,96.00
2018-03-20T03:53:36.651Z,96.00
2018-03-20T03:56:02.869Z,96.00
2018-03-20T03:58:29.078Z,96.00
2018-03-20T04:00:55.289Z,96.00
2018-03-20T04:03:21.779Z,96.00
2018-03-20T04:05:47.983Z,96.20
2018-03-20T04:08:14.947Z,95.80
2018-03-20T04:10:41.909Z,95.70
2018-03-20T04:13:08.858Z,95.80
2018-03-20T04:15:35.856Z,95.80
2018-03-20T04:18:02.109Z,95.80
2018-03-20T04:20:28.350Z,95.80
2018-03-20T04:22:54.611Z,95.70
2018-03-20T04:25:21.090Z,95.70
2018-03-20T04:27:48.029Z,95.50
2018-03-20T04:30:14.998Z,95.50
2018-03-20T04:32:41.288Z,95.50
2018-03-20T04:35:07.508Z,95.60
2018-03-20T04:37:33.731Z,95.70
2018-03-20T04:39:59.962Z,95.80
2018-03-20T04:42:26.930Z,95.70
2018-03-20T04:44:53.860Z,95.60
2018-03-20T04:47:20.076Z,95.60
2018-03-20T04:49:46.264Z,95.50
2018-03-20T04:52:13.243Z,95.50
2018-03-20T04:54:39.480Z,95.50
2018-03-20T04:57:05.720Z,95.60
2018-03-20T04:59:31.947Z,95.70
2018-03-20T05:01:58.148Z,95.70
2018-03-20T05:04:24.398Z,95.70
2018-03-20T05:06:50.636Z,95.80
2018-03-20T05:09:16.851Z,96.00
2018-03-20T05:11:43.069Z,96.00
2018-03-20T05:14:09.304Z,96.20
2018-03-20T05:16:35.549Z,96.50
2018-03-20T05:19:03.761Z,96.20
2018-03-20T05:21:44.926Z,96.20
2018-03-20T05:24:11.162Z,96.10
2018-03-20T05:26:37.403Z,98.20
2018-03-20T05:29:03.721Z,99.90
2018-03-20T05:31:30.729Z,98.90
2018-03-20T05:33:56.977Z,98.90
2018-03-20T05:36:23.237Z,96.80
2018-03-20T05:38:49.767Z,98.40
2018-03-20T05:41:16.008Z,95.90
2018-03-20T05:43:42.255Z,92.60
2018-03-20T05:46:08.526Z,90.20
2018-03-20T05:48:51.173Z,90.10
2018-03-20T05:51:23.231Z,90.10
2018-03-20T05:53:50.661Z,85.00
2018-03-20T05:56:18.511Z,84.20
2018-03-20T05:58:44.733Z,84.10
2018-03-20T06:01:10.977Z,84.80
2018-03-20T06:03:37.209Z,85.80
2018-03-20T06:06:03.458Z,86.30
2018-03-20T06:08:29.691Z,87.20
2018-03-20T06:10:55.934Z,88.00
2018-03-20T06:13:22.192Z,88.60
2018-03-20T06:15:49.143Z,89.30
2018-03-20T06:18:15.358Z,89.30
2018-03-20T06:20:42.343Z,89.50
2018-03-20T06:23:08.569Z,89.40
2018-03-20T06:25:34.783Z,90.00
2018-03-20T06:28:01.008Z,90.10
2018-03-20T06:30:27.243Z,90.10
2018-03-20T06:32:53.502Z,90.20
2018-03-20T06:35:19.714Z,90.50
2018-03-20T06:37:45.954Z,91.10
2018-03-20T06:40:12.918Z,92.30
2018-03-20T06:42:39.159Z,92.30
2018-03-20T06:45:05.396Z,92.40
2018-03-20T06:47:31.602Z,92.40
2018-03-20T06:49:57.842Z,92.00
2018-03-20T06:52:24.058Z,91.50
2018-03-20T06:54:51.038Z,90.80
2018-03-20T06:57:17.258Z,90.80
2018-03-20T06:59:44.218Z,90.50
2018-03-20T07:02:11.214Z,90.30
2018-03-20T07:04:37.420Z,90.30
2018-03-20T07:07:04.383Z,89.90
2018-03-20T07:09:30.600Z,89.70
2018-03-20T07:11:57.593Z,89.50
2018-03-20T07:14:23.812Z,89.50
2018-03-20T07:16:50.782Z,88.50
2018-03-20T07:19:17.033Z,88.50
2018-03-20T07:21:43.252Z,88.70
2018-03-20T07:24:10.234Z,89.20
2018-03-20T07:26:36.434Z,89.20
2018-03-20T07:29:02.714Z,89.80
2018-03-20T07:31:28.929Z,90.10
2018-03-20T07:33:55.903Z,90.90
2018-03-20T07:36:22.114Z,91.00
2018-03-20T07:38:49.078Z,92.60
2018-03-20T07:41:16.050Z,91.60
2018-03-20T07:43:42.272Z,91.60
2018-03-20T07:46:09.222Z,90.70
2018-03-20T07:48:35.461Z,90.60
2018-03-20T07:51:01.675Z,90.10
2018-03-20T07:53:27.950Z,89.20
2018-03-20T07:55:54.168Z,89.50
2018-03-20T07:58:20.383Z,90.90
2018-03-20T08:00:46.596Z,90.20
2018-03-20T08:03:12.882Z,87.30
2018-03-20T08:05:39.102Z,86.70
2018-03-20T08:08:05.352Z,86.90
2018-03-20T08:10:31.600Z,87.80
2018-03-20T08:12:57.829Z,86.80
2018-03-20T08:15:24.056Z,86.90
2018-03-20T08:17:50.295Z,86.70
2018-03-20T08:20:16.532Z,86.70
2018-03-20T08:22:42.758Z,86.90
2018-03-20T08:25:09.281Z,86.30
2018-03-20T08:27:35.531Z,85.70
2018-03-20T08:30:02.581Z,86.20
2018-03-20T08:32:29.559Z,86.00
2018-03-20T08:34:55.779Z,86.00
2018-03-20T08:37:23.019Z,85.10
2018-03-20T08:39:49.263Z,85.10
2018-03-20T08:42:15.507Z,85.40
2018-03-20T08:44:41.738Z,86.40
2018-03-20T08:47:07.971Z,87.70
2018-03-20T08:49:34.193Z,87.50
2018-03-20T08:52:00.430Z,87.20
2018-03-20T08:54:26.697Z,86.70
2018-03-20T08:56:52.935Z,86.30
2018-03-20T08:59:19.157Z,86.50
2018-03-20T09:01:45.393Z,87.20
2018-03-20T09:04:11.638Z,87.30
2018-03-20T09:06:37.879Z,86.80
2018-03-20T09:09:04.133Z,87.20
2018-03-20T09:11:31.078Z,86.90
2018-03-20T09:13:57.323Z,86.90
2018-03-20T09:16:23.560Z,86.50
2018-03-20T09:18:49.804Z,85.20
2018-03-20T09:21:16.021Z,83.80
2018-03-20T09:23:42.268Z,83.50
2018-03-20T09:26:08.437Z,82.90
2018-03-20T09:28:34.681Z,83.00
2018-03-20T09:31:00.935Z,83.40
2018-03-20T09:33:27.186Z,82.50
2018-03-20T09:35:53.422Z,82.30
2018-03-20T09:38:19.638Z,82.40
2018-03-20T09:40:45.871Z,81.90
2018-03-20T09:43:12.089Z,81.90
2018-03-20T09:45:38.313Z,82.10
2018-03-20T09:48:04.562Z,81.90
2018-03-20T09:50:30.785Z,82.40
2018-03-20T09:52:57.044Z,83.00
2018-03-20T09:55:23.339Z,84.10
2018-03-20T09:57:49.570Z,85.60
2018-03-20T10:00:15.873Z,85.70
2018-03-20T10:02:42.796Z,86.00
2018-03-20T10:05:09.784Z,86.20
2018-03-20T10:07:36.016Z,86.10
2018-03-20T10:10:02.271Z,85.60
2018-03-20T10:12:28.516Z,84.60
2018-03-20T10:14:54.760Z,87.80
2018-03-20T10:17:21.007Z,87.20
2018-03-20T10:19:47.260Z,82.90
2018-03-20T10:22:13.497Z,80.90
2018-03-20T10:24:39.736Z,80.40
2018-03-20T10:27:05.971Z,80.70
2018-03-20T10:29:32.203Z,80.50
2018-03-20T10:31:58.413Z,79.70
2018-03-20T10:34:25.401Z,79.30
2018-03-20T10:36:51.621Z,79.40
2018-03-20T10:39:17.893Z,79.40
2018-03-20T10:41:44.121Z,79.00
2018-03-20T10:44:10.363Z,77.80
2018-03-20T10:46:36.584Z,77.60
2018-03-20T10:49:03.599Z,76.60
2018-03-20T10:51:29.830Z,76.60
2018-03-20T10:53:56.073Z,76.80
2018-03-20T10:56:22.299Z,77.00
2018-03-20T10:58:48.527Z,77.50
2018-03-20T11:01:20.751Z,77.50
2018-03-20T11:03:46.983Z,77.80
2018-03-20T11:06:13.201Z,75.30
2018-03-20T11:08:39.471Z,74.00
2018-03-20T11:11:05.707Z,75.30
2018-03-20T11:13:31.945Z,75.40
2018-03-20T11:15:58.153Z,75.00
2018-03-20T11:18:24.740Z,74.10
2018-03-20T11:20:50.973Z,73.90
2018-03-20T11:23:17.186Z,73.80
2018-03-20T11:25:43.433Z,72.40
2018-03-20T11:28:09.646Z,72.20
2018-03-20T11:30:35.913Z,72.90
2018-03-20T11:33:02.124Z,73.10
2018-03-20T11:35:28.625Z,74.40
2018-03-20T11:37:54.849Z,73.10
2018-03-20T11:40:21.053Z,72.00
2018-03-20T11:42:47.301Z,70.60
2018-03-20T11:45:13.554Z,70.90
2018-03-20T11:47:39.801Z,70.60
2018-03-20T11:50:06.059Z,69.50
2018-03-20T11:52:32.288Z,69.30
2018-03-20T11:54:58.553Z,69.40
2018-03-20T11:57:25.520Z,66.60
2018-03-20T11:59:52.520Z,66.50
2018-03-20T12:02:18.786Z,66.50
2018-03-20T12:04:45.514Z,65.90
2018-03-20T12:07:12.470Z,65.60
2018-03-20T12:09:47.630Z,65.20
2018-03-20T12:12:13.889Z,65.20
2018-03-20T12:14:40.144Z,63.50
2018-03-20T12:17:06.404Z,61.50
2018-03-20T12:19:33.378Z,64.50
2018-03-20T12:21:59.623Z,64.50
2018-03-20T12:24:25.854Z,64.30
2018-03-20T12:26:52.804Z,64.70
2018-03-20T12:29:19.801Z,65.00
2018-03-20T12:31:46.054Z,64.90
2018-03-20T12:34:12.622Z,64.40
2018-03-20T12:36:38.866Z,63.20
2018-03-20T12:39:05.939Z,60.40
2018-03-20T12:41:32.181Z,60.40
2018-03-20T12:43:58.429Z,61.50
2018-03-20T12:46:25.685Z,64.50
2018-03-20T12:48:51.893Z,64.50
2018-03-20T12:51:18.121Z,66.10
2018-03-20T12:53:44.363Z,65.90
2018-03-20T12:56:10.635Z,65.40
2018-03-20T12:58:36.872Z,65.40
2018-03-20T13:01:03.097Z,63.50
2018-03-20T13:03:29.379Z,60.70
2018-03-20T13:05:56.365Z,58.30
2018-03-20T13:08:22.589Z,58.30
2018-03-20T13:10:49.561Z,58.30
2018-03-20T13:13:15.796Z,58.30
2018-03-20T13:15:42.064Z,60.10
2018-03-20T13:18:08.271Z,62.30
2018-03-20T13:20:34.521Z,61.50
2018-03-20T13:23:00.767Z,59.10
2018-03-20T13:25:26.988Z,60.50
2018-03-20T13:27:53.957Z,60.10
2018-03-20T13:30:20.191Z,60.10
2018-03-20T13:32:46.415Z,61.10
2018-03-20T13:35:13.381Z,60.00
2018-03-20T13:37:40.339Z,58.30
2018-03-20T13:40:06.577Z,58.30
2018-03-20T13:42:33.564Z,58.60
2018-03-20T13:44:59.800Z,58.60
2018-03-20T13:47:26.014Z,58.10
2018-03-20T13:49:52.988Z,55.00
2018-03-20T13:52:19.212Z,55.00
2018-03-20T13:54:46.222Z,55.00
2018-03-20T13:57:12.805Z,55.00
2018-03-20T13:59:39.751Z,56.30
2018-03-20T14:02:05.952Z,56.20
2018-03-20T14:04:32.259Z,55.50
2018-03-20T14:06:58.477Z,55.80
2018-03-20T14:09:26.328Z,57.80
2018-03-20T14:11:52.528Z,57.70
2018-03-20T14:14:18.781Z,57.80
2018-03-20T14:16:45.081Z,56.20
2018-03-20T14:19:12.048Z,55.80
2018-03-20T14:21:39.104Z,55.90
2018-03-20T14:24:05.344Z,55.90
2018-03-20T14:26:32.350Z,54.90
2018-03-20T14:28:58.597Z,54.90
2018-03-20T14:31:25.088Z,54.30
2018-03-20T14:33:51.330Z,52.50
2018-03-20T14:36:17.568Z,52.90
2018-03-20T14:38:43.820Z,53.60
2018-03-20T14:41:10.801Z,54.10
2018-03-20T14:43:37.047Z,54.00
2018-03-20T14:46:03.297Z,54.60
2018-03-20T14:48:29.526Z,54.60
2018-03-20T14:50:55.817Z,54.30
2018-03-20T14:53:22.167Z,54.20
2018-03-20T14:55:55.376Z,55.10
2018-03-20T14:58:21.625Z,55.00
2018-03-20T15:00:48.599Z,54.00
2018-03-20T15:03:14.817Z,54.00
2018-03-20T15:05:41.799Z,55.40
2018-03-20T15:08:08.053Z,55.10
2018-03-20T15:10:34.320Z,55.80
2018-03-20T15:13:00.559Z,56.70
2018-03-20T15:15:26.769Z,57.20
2018-03-20T15:17:53.020Z,57.70
2018-03-20T15:20:19.281Z,57.80
2018-03-20T15:22:45.515Z,58.80
2018-03-20T15:25:11.755Z,58.60
2018-03-20T15:27:37.992Z,56.70
2018-03-20T15:30:04.247Z,55.40
2018-03-20T15:32:30.497Z,55.10
2018-03-20T15:34:56.747Z,54.80
2018-03-20T15:37:22.969Z,54.40
2018-03-20T15:39:49.195Z,54.10
2018-03-20T15:42:15.407Z,53.60
2018-03-20T15:44:41.659Z,54.10
2018-03-20T15:47:07.886Z,55.00
2018-03-20T15:49:34.129Z,56.20
2018-03-20T15:52:00.371Z,57.20
2018-03-20T15:54:26.675Z,55.70
2018-03-20T15:56:52.923Z,54.10
2018-03-20T15:59:19.150Z,53.60
2018-03-20T16:01:45.647Z,53.50
2018-03-20T16:04:11.863Z,53.20
2018-03-20T16:06:38.847Z,54.10
2018-03-20T16:09:05.105Z,54.10
2018-03-20T16:11:31.346Z,55.30
2018-03-20T16:13:57.618Z,56.70
2018-03-20T16:16:30.871Z,57.70
2018-03-20T16:18:57.150Z,58.70
2018-03-20T16:21:23.388Z,59.60
2018-03-20T16:23:49.605Z,60.30
2018-03-20T16:26:15.884Z,60.70
2018-03-20T16:28:42.167Z,61.50
2018-03-20T16:31:09.194Z,63.00
2018-03-20T16:33:35.438Z,62.90
2018-03-20T16:36:01.683Z,63.30
2018-03-20T16:38:27.974Z,64.30
2018-03-20T16:40:54.217Z,64.90
2018-03-20T16:43:20.508Z,65.30
2018-03-20T16:45:46.714Z,65.80
2018-03-20T16:48:12.956Z,66.30
2018-03-20T16:50:39.182Z,66.90
2018-03-20T16:53:05.961Z,67.70
2018-03-20T16:55:32.216Z,68.20
2018-03-20T16:57:58.499Z,68.90
2018-03-20T17:00:24.734Z,70.20
2018-03-20T17:02:50.964Z,70.00
2018-03-20T17:05:17.969Z,71.00
2018-03-20T17:07:44.225Z,71.00
2018-03-20T17:10:10.442Z,72.00
2018-03-20T17:12:36.705Z,71.80
2018-03-20T17:15:03.003Z,72.00
2018-03-20T17:17:29.337Z,72.40
2018-03-20T17:19:58.150Z,73.00
2018-03-20T17:22:24.410Z,73.00
2018-03-20T17:24:50.672Z,73.20
2018-03-20T17:27:16.942Z,73.10
2018-03-20T17:29:43.936Z,73.80
2018-03-20T17:32:10.213Z,73.80
2018-03-20T17:34:36.471Z,74.50
2018-03-20T17:37:03.468Z,75.90
2018-03-20T17:39:29.744Z,75.80
2018-03-20T17:41:55.974Z,75.70
2018-03-20T17:44:22.204Z,75.60
2018-03-20T17:46:48.457Z,76.70
2018-03-20T17:49:14.708Z,76.80
2018-03-20T17:51:40.965Z,76.20
2018-03-20T17:54:07.298Z,75.50
2018-03-20T17:56:33.544Z,76.00
2018-03-20T17:58:59.864Z,76.50
2018-03-20T18:01:26.145Z,77.10
2018-03-20T18:03:52.483Z,77.60
2018-03-20T18:06:18.757Z,77.80
2018-03-20T18:08:44.987Z,78.60
2018-03-20T18:11:12.097Z,79.10
2018-03-20T18:13:38.384Z,79.10
2018-03-20T18:16:05.405Z,79.70
2018-03-20T18:18:31.657Z,79.70
2018-03-20T18:20:57.945Z,80.30
2018-03-20T18:23:24.209Z,80.80
2018-03-20T18:25:50.526Z,81.10
2018-03-20T18:28:17.639Z,81.40
2018-03-20T18:30:43.929Z,81.70
2018-03-20T18:33:10.530Z,82.10
2018-03-20T18:35:36.858Z,82.50
2018-03-20T18:38:03.169Z,82.70
2018-03-20T18:40:29.506Z,82.80
2018-03-20T18:42:55.811Z,82.80
2018-03-20T18:45:22.101Z,82.90
2018-03-20T18:47:48.416Z,82.90
2018-03-20T18:50:15.506Z,82.80
2018-03-20T18:52:41.799Z,82.80
2018-03-20T18:55:08.837Z,83.10
2018-03-20T18:57:35.164Z,83.10
2018-03-20T19:00:01.499Z,83.10
2018-03-20T19:02:27.791Z,83.10
2018-03-20T19:04:54.079Z,83.10
2018-03-20T19:07:20.392Z,83.30
2018-03-20T19:09:46.773Z,83.50
2018-03-20T19:12:13.071Z,84.10
2018-03-20T19:14:40.117Z,85.80
2018-03-20T19:17:06.405Z,85.80
2018-03-20T19:19:32.675Z,85.20
2018-03-20T19:21:58.947Z,84.70
2018-03-20T19:24:25.255Z,84.30
2018-03-20T19:26:51.551Z,84.30
2018-03-20T19:29:18.888Z,84.30
2018-03-20T19:31:45.184Z,84.30
2018-03-20T19:34:11.567Z,84.50
2018-03-20T19:36:37.912Z,84.70
2018-03-20T19:39:05.200Z,84.70
2018-03-20T19:41:32.294Z,84.70
2018-03-20T19:43:58.747Z,84.70
2018-03-20T19:46:25.136Z,84.70
2018-03-20T19:48:51.721Z,85.40
2018-03-20T19:51:18.055Z,84.80
2018-03-20T19:53:44.401Z,84.90
2018-03-20T19:56:11.522Z,84.90
2018-03-20T19:58:37.948Z,85.00
2018-03-20T20:01:05.110Z,84.90
2018-03-20T20:03:31.394Z,84.90
2018-03-20T20:05:59.230Z,84.90
2018-03-20T20:08:25.518Z,84.90
2018-03-20T20:10:52.615Z,85.70
2018-03-20T20:13:18.917Z,84.90
2018-03-20T20:15:45.980Z,84.90
2018-03-20T20:18:13.046Z,85.10
2018-03-20T20:20:40.089Z,87.10
2018-03-20T20:23:07.133Z,86.10
2018-03-20T20:25:33.444Z,86.10
2018-03-20T20:27:59.835Z,86.30
2018-03-20T20:30:27.673Z,86.80
2018-03-20T20:32:54.905Z,86.80
2018-03-20T20:35:21.304Z,86.20
2018-03-20T20:37:47.667Z,90.20
2018-03-20T20:40:14.771Z,90.70
2018-03-20T20:42:41.050Z,90.70
2018-03-20T20:45:07.404Z,87.90
2018-03-20T20:47:34.447Z,82.50
2018-03-20T20:50:00.750Z,81.80
2018-03-20T20:52:27.109Z,81.60
2018-03-20T20:54:53.405Z,82.00
2018-03-20T20:57:20.480Z,82.80
2018-03-20T20:59:46.775Z,82.80
2018-03-20T21:02:13.819Z,83.70
2018-03-20T21:04:40.115Z,83.40
2018-03-20T21:07:06.405Z,83.50
2018-03-20T21:09:32.709Z,83.70
2018-03-20T21:11:58.989Z,84.00
2018-03-20T21:14:25.257Z,84.20
2018-03-20T21:16:52.313Z,84.50
2018-03-20T21:19:18.622Z,84.30
2018-03-20T21:21:44.905Z,84.30
2018-03-20T21:24:11.909Z,84.60
2018-03-20T21:26:38.196Z,84.30
2018-03-20T21:29:04.468Z,84.60
2018-03-20T21:31:30.733Z,84.70
2018-03-20T21:33:56.986Z,84.60
2018-03-20T21:36:23.300Z,84.80
2018-03-20T21:38:49.586Z,85.40
2018-03-20T21:41:15.855Z,84.80
2018-03-20T21:43:42.086Z,85.00
2018-03-20T21:46:08.334Z,86.00
2018-03-20T21:48:34.568Z,85.50
2018-03-20T21:51:00.808Z,86.10
2018-03-20T21:53:27.147Z,85.50
2018-03-20T21:55:53.392Z,85.50
2018-03-20T21:58:19.650Z,85.40
2018-03-20T22:00:46.618Z,85.60
2018-03-20T22:03:13.574Z,85.80
2018-03-20T22:05:40.538Z,86.10
2018-03-20T22:08:06.800Z,86.10
2018-03-20T22:10:33.036Z,86.20
2018-03-20T22:12:59.275Z,86.20
2018-03-20T22:15:25.514Z,86.30
2018-03-20T22:17:51.742Z,86.40
2018-03-20T22:20:17.997Z,86.50
2018-03-20T22:22:44.198Z,86.50
2018-03-20T22:25:11.174Z,86.80
2018-03-20T22:27:38.125Z,86.90
2018-03-20T22:30:05.134Z,87.10
2018-03-20T22:32:31.362Z,87.10
2018-03-20T22:34:58.034Z,87.30
2018-03-20T22:37:24.235Z,87.40
2018-03-20T22:39:50.451Z,87.50
2018-03-20T22:42:17.422Z,87.60
2018-03-20T22:44:43.662Z,87.70
2018-03-20T22:47:10.170Z,87.50
2018-03-20T22:49:36.395Z,87.60
2018-03-20T22:52:02.617Z,87.80
2018-03-20T22:54:28.841Z,87.80
2018-03-20T22:56:55.076Z,87.70
2018-03-20T22:59:21.296Z,87.80
2018-03-20T23:01:48.259Z,88.00
2018-03-20T23:04:14.523Z,88.00
2018-03-20T23:06:40.752Z,88.20
2018-03-20T23:09:06.985Z,88.20
2018-03-20T23:11:33.221Z,88.40
2018-03-20T23:14:00.179Z,88.70
2018-03-20T23:16:27.146Z,88.80
2018-03-20T23:18:53.393Z,88.80
2018-03-20T23:21:19.627Z,88.80
2018-03-20T23:23:45.836Z,88.90
2018-03-20T23:26:12.377Z,88.80
2018-03-20T23:28:38.590Z,88.90
2018-03-20T23:31:04.815Z,89.00
2018-03-20T23:33:31.042Z,89.00
2018-03-20T23:35:57.250Z,89.20
2018-03-20T23:38:24.215Z,90.00
2018-03-20T23:40:51.164Z,89.30
2018-03-20T23:43:18.422Z,90.10
2018-03-20T23:45:44.665Z,89.60
2018-03-20T23:48:10.865Z,89.70
2018-03-20T23:50:37.095Z,90.00
2018-03-20T23:53:03.306Z,90.10
2018-03-20T23:55:30.275Z,90.20
2018-03-20T23:57:56.501Z,90.20
